createdAt,value
2018-09-09T00:00:52.278Z,72.50
2018-09-09T00:03:19.952Z,72.10
2018-09-09T00:05:48.497Z,72.10
2018-09-09T00:08:16.177Z,72.20
2018-09-09T00:10:43.872Z,72.20
2018-09-09T00:13:11.545Z,72.20
2018-09-09T00:15:39.220Z,72.30
2018-09-09T00:18:06.996Z,72.30
2018-09-09T00:20:34.660Z,72.30
2018-09-09T00:23:02.340Z,72.30
2018-09-09T00:25:29.996Z,73.00
2018-09-09T00:27:57.668Z,72.40
2018-09-09T00:30:25.339Z,72.40
2018-09-09T00:32:54.055Z,72.50
2018-09-09T00:35:23.461Z,72.40
2018-09-09T00:37:53.218Z,72.50
2018-09-09T00:40:21.755Z,72.50
2018-09-09T00:42:50.443Z,72.50
2018-09-09T00:45:19.475Z,72.50
2018-09-09T00:47:47.753Z,72.70
2018-09-09T00:50:23.140Z,72.60
2018-09-09T00:52:56.252Z,72.50
2018-09-09T00:55:23.918Z,72.60
2018-09-09T00:57:53.452Z,72.70
2018-09-09T01:00:26.388Z,72.20
2018-09-09T01:02:55.072Z,72.50
2018-09-09T01:05:23.823Z,72.60
2018-09-09T01:07:53.090Z,72.40
2018-09-09T01:10:21.953Z,72.60
2018-09-09T01:12:50.655Z,72.60
2018-09-09T01:15:19.438Z,72.50
2018-09-09T01:17:47.712Z,72.40
2018-09-09T01:20:16.476Z,72.50
2018-09-09T01:22:44.139Z,72.50
2018-09-09T01:25:11.800Z,72.40
2018-09-09T01:27:40.383Z,72.50
2018-09-09T01:30:09.644Z,72.60
2018-09-09T01:32:38.252Z,72.30
2018-09-09T01:35:06.956Z,72.40
2018-09-09T01:37:34.620Z,72.50
2018-09-09T01:40:02.320Z,72.60
2018-09-09T01:42:30.020Z,72.70
2018-09-09T01:44:57.711Z,72.50
2018-09-09T01:47:26.292Z,72.60
2018-09-09T01:49:53.997Z,72.70
2018-09-09T01:52:23.596Z,72.70
2018-09-09T01:54:52.348Z,72.50
2018-09-09T01:57:21.057Z,72.50
2018-09-09T01:59:49.743Z,72.50
2018-09-09T02:02:19.525Z,72.60
2018-09-09T02:04:48.255Z,72.60
2018-09-09T02:07:16.934Z,72.70
2018-09-09T02:09:45.664Z,72.70
2018-09-09T02:12:13.375Z,72.60
2018-09-09T02:14:42.064Z,72.50
2018-09-09T02:17:10.603Z,72.60
2018-09-09T02:19:39.144Z,72.70
2018-09-09T02:22:08.007Z,72.50
2018-09-09T02:24:36.556Z,72.60
2018-09-09T02:27:05.224Z,72.50
2018-09-09T02:29:33.919Z,72.50
2018-09-09T02:32:02.656Z,72.50
2018-09-09T02:34:31.340Z,72.60
2018-09-09T02:37:00.015Z,72.70
2018-09-09T02:39:28.705Z,72.80
2018-09-09T02:41:57.250Z,72.50
2018-09-09T02:44:25.833Z,72.50
2018-09-09T02:46:54.405Z,72.70
2018-09-09T02:49:24.572Z,72.50
2018-09-09T02:51:53.287Z,72.50
2018-09-09T02:54:21.948Z,72.50
2018-09-09T02:56:50.623Z,72.60
2018-09-09T02:59:19.511Z,72.40
2018-09-09T03:01:48.644Z,72.50
2018-09-09T03:04:17.794Z,72.90
2018-09-09T03:06:46.541Z,72.50
2018-09-09T03:09:15.160Z,72.50
2018-09-09T03:11:43.880Z,72.50
2018-09-09T03:14:11.543Z,72.40
2018-09-09T03:16:40.232Z,72.50
2018-09-09T03:19:08.953Z,72.60
2018-09-09T03:21:37.633Z,72.20
2018-09-09T03:24:06.364Z,72.30
2018-09-09T03:26:35.119Z,72.40
2018-09-09T03:29:03.881Z,72.50
2018-09-09T03:31:32.582Z,72.50
2018-09-09T03:34:01.185Z,72.40
2018-09-09T03:36:29.852Z,72.20
2018-09-09T03:38:58.425Z,72.30
2018-09-09T03:41:26.098Z,72.80
2018-09-09T03:43:53.941Z,72.10
2018-09-09T03:46:23.836Z,72.10
2018-09-09T03:48:52.751Z,72.20
2018-09-09T03:51:23.241Z,72.10
2018-09-09T03:53:53.481Z,72.30
2018-09-09T03:56:22.193Z,72.20
2018-09-09T03:58:51.655Z,72.10
2018-09-09T04:01:21.715Z,72.20
2018-09-09T04:03:51.977Z,72.00
2018-09-09T04:06:21.761Z,72.00
2018-09-09T04:08:50.576Z,72.30
2018-09-09T04:11:21.922Z,72.10
2018-09-09T04:13:52.035Z,72.10
2018-09-09T04:16:20.636Z,72.00
2018-09-09T04:18:51.549Z,72.10
2018-09-09T04:21:20.132Z,72.00
2018-09-09T04:23:49.812Z,71.90
2018-09-09T04:26:19.528Z,72.10
2018-09-09T04:28:47.658Z,72.10
2018-09-09T04:31:15.374Z,72.10
2018-09-09T04:33:48.228Z,72.10
2018-09-09T04:36:16.806Z,71.90
2018-09-09T04:38:45.492Z,72.10
2018-09-09T04:41:14.864Z,71.70
2018-09-09T04:43:43.544Z,71.60
2018-09-09T04:46:12.096Z,71.90
2018-09-09T04:48:39.832Z,72.10
2018-09-09T04:51:08.386Z,72.10
2018-09-09T04:53:37.064Z,71.80
2018-09-09T04:56:05.751Z,71.80
2018-09-09T04:58:33.428Z,71.80
2018-09-09T05:01:01.116Z,71.70
2018-09-09T05:03:28.777Z,71.70
2018-09-09T05:05:56.924Z,71.70
2018-09-09T05:08:24.596Z,71.80
2018-09-09T05:10:53.604Z,71.90
2018-09-09T05:13:22.339Z,71.90
2018-09-09T05:15:50.161Z,71.90
2018-09-09T05:18:17.867Z,71.80
2018-09-09T05:20:45.540Z,71.90
2018-09-09T05:23:14.207Z,71.80
2018-09-09T05:25:42.888Z,71.80
2018-09-09T05:28:10.556Z,71.80
2018-09-09T05:30:38.229Z,71.70
2018-09-09T05:33:05.896Z,71.60
2018-09-09T05:35:33.543Z,71.90
2018-09-09T05:38:07.860Z,71.80
2018-09-09T05:40:35.524Z,71.50
2018-09-09T05:43:03.228Z,71.60
2018-09-09T05:45:30.920Z,71.60
2018-09-09T05:47:59.604Z,71.90
2018-09-09T05:50:28.295Z,71.60
2018-09-09T05:52:55.980Z,71.70
2018-09-09T05:55:23.657Z,71.90
2018-09-09T05:57:52.812Z,71.70
2018-09-09T06:00:21.996Z,71.80
2018-09-09T06:02:50.666Z,71.90
2018-09-09T06:05:21.961Z,71.50
2018-09-09T06:07:50.539Z,71.60
2018-09-09T06:10:19.369Z,71.50
2018-09-09T06:12:47.039Z,71.50
2018-09-09T06:15:14.708Z,71.50
2018-09-09T06:17:42.381Z,71.80
2018-09-09T06:20:10.047Z,71.80
2018-09-09T06:22:37.715Z,71.60
2018-09-09T06:25:05.387Z,71.70
2018-09-09T06:27:33.063Z,71.70
2018-09-09T06:30:00.760Z,71.80
2018-09-09T06:32:28.434Z,71.90
2018-09-09T06:34:56.122Z,71.50
2018-09-09T06:37:24.452Z,71.60
2018-09-09T06:39:53.570Z,71.30
2018-09-09T06:42:23.131Z,71.50
2018-09-09T06:44:52.792Z,71.50
2018-09-09T06:47:20.500Z,72.40
2018-09-09T06:49:50.092Z,71.50
2018-09-09T06:52:18.704Z,71.30
2018-09-09T06:54:47.924Z,71.50
2018-09-09T06:57:16.550Z,71.70
2018-09-09T06:59:45.120Z,71.50
2018-09-09T07:02:13.718Z,71.60
2018-09-09T07:04:42.520Z,71.70
2018-09-09T07:07:11.104Z,71.40
2018-09-09T07:09:39.847Z,71.60
2018-09-09T07:12:07.732Z,71.50
2018-09-09T07:14:36.369Z,71.50
2018-09-09T07:17:05.144Z,71.50
2018-09-09T07:19:33.856Z,71.60
2018-09-09T07:22:02.540Z,71.70
2018-09-09T07:24:31.260Z,71.60
2018-09-09T07:26:58.967Z,71.80
2018-09-09T07:29:26.641Z,71.60
2018-09-09T07:31:54.323Z,71.00
2018-09-09T07:34:24.532Z,71.50
2018-09-09T07:36:53.208Z,71.50
2018-09-09T07:39:22.372Z,71.60
2018-09-09T07:41:51.519Z,71.60
2018-09-09T07:44:20.260Z,71.50
2018-09-09T07:46:47.967Z,71.30
2018-09-09T07:49:16.511Z,71.10
2018-09-09T07:51:45.075Z,71.60
2018-09-09T07:54:13.533Z,71.60
2018-09-09T07:56:41.402Z,71.90
2018-09-09T07:59:09.112Z,71.90
2018-09-09T08:01:36.831Z,72.00
2018-09-09T08:04:04.766Z,72.30
2018-09-09T08:06:33.324Z,72.30
2018-09-09T08:09:02.052Z,72.30
2018-09-09T08:11:36.960Z,72.40
2018-09-09T08:14:06.268Z,73.20
2018-09-09T08:16:35.250Z,72.50
2018-09-09T08:19:04.028Z,72.60
2018-09-09T08:21:33.395Z,72.70
2018-09-09T08:24:01.990Z,72.70
2018-09-09T08:26:30.700Z,72.50
2018-09-09T08:28:58.435Z,72.90
2018-09-09T08:31:27.132Z,72.90
2018-09-09T08:33:55.832Z,73.20
2018-09-09T08:36:24.580Z,72.90
2018-09-09T08:38:53.728Z,73.50
2018-09-09T08:41:23.228Z,73.10
2018-09-09T08:43:52.721Z,73.30
2018-09-09T08:46:20.431Z,73.30
2018-09-09T08:48:49.016Z,73.40
2018-09-09T08:51:18.563Z,73.30
2018-09-09T08:53:48.259Z,73.10
2018-09-09T08:56:16.974Z,73.30
2018-09-09T08:58:44.688Z,73.00
2018-09-09T09:01:12.360Z,73.10
2018-09-09T09:03:40.962Z,72.90
2018-09-09T09:06:08.629Z,73.00
2018-09-09T09:08:37.230Z,73.00
2018-09-09T09:11:04.916Z,73.20
2018-09-09T09:13:32.619Z,73.30
2018-09-09T09:16:00.302Z,73.40
2018-09-09T09:18:28.069Z,73.50
2018-09-09T09:20:56.677Z,73.30
2018-09-09T09:23:25.424Z,73.50
2018-09-09T09:25:55.779Z,73.50
2018-09-09T09:28:24.648Z,73.40
2018-09-09T09:30:53.768Z,73.40
2018-09-09T09:33:21.956Z,73.30
2018-09-09T09:35:54.304Z,73.50
2018-09-09T09:38:22.719Z,73.00
2018-09-09T09:40:51.529Z,73.10
2018-09-09T09:43:20.273Z,73.40
2018-09-09T09:45:47.996Z,73.50
2018-09-09T09:48:15.818Z,73.70
2018-09-09T09:50:43.533Z,73.70
2018-09-09T09:53:11.322Z,73.90
2018-09-09T09:55:39.915Z,73.50
2018-09-09T09:58:07.625Z,73.10
2018-09-09T10:00:41.625Z,73.20
2018-09-09T10:03:10.215Z,73.00
2018-09-09T10:05:38.771Z,72.60
2018-09-09T10:08:07.494Z,70.50
2018-09-09T10:10:36.160Z,70.20
2018-09-09T10:13:03.855Z,70.00
2018-09-09T10:15:31.558Z,70.30
2018-09-09T10:17:59.260Z,70.80
2018-09-09T10:20:26.924Z,70.50
2018-09-09T10:22:54.693Z,69.30
2018-09-09T10:28:23.248Z,68.40
2018-09-09T10:30:52.414Z,68.10
2018-09-09T10:33:20.132Z,68.10
2018-09-09T10:35:49.720Z,68.10
2018-09-09T10:38:18.981Z,68.90
2018-09-09T10:40:48.189Z,68.30
2018-09-09T10:43:16.875Z,67.90
2018-09-09T10:45:45.535Z,67.60
2018-09-09T10:48:14.206Z,67.40
2018-09-09T10:50:42.884Z,67.60
2018-09-09T10:53:11.638Z,67.40
2018-09-09T10:55:40.302Z,67.50
2018-09-09T10:58:07.981Z,67.10
2018-09-09T11:00:36.696Z,67.50
2018-09-09T11:03:05.574Z,68.10
2018-09-09T11:05:34.146Z,68.50
2018-09-09T11:08:01.831Z,68.50
2018-09-09T11:10:30.513Z,67.80
2018-09-09T11:12:59.276Z,68.50
2018-09-09T11:15:27.947Z,68.50
2018-09-09T11:17:56.665Z,68.80
2018-09-09T11:20:25.364Z,68.90
2018-09-09T11:22:55.507Z,69.00
2018-09-09T11:25:23.200Z,69.10
2018-09-09T11:27:52.796Z,69.20
2018-09-09T11:30:22.723Z,69.50
2018-09-09T11:32:52.684Z,69.50
2018-09-09T11:35:22.858Z,69.80
2018-09-09T11:37:52.004Z,69.80
2018-09-09T11:40:21.827Z,70.00
2018-09-09T11:42:50.396Z,70.30
2018-09-09T11:45:20.203Z,70.40
2018-09-09T11:47:49.182Z,70.40
2018-09-09T11:50:18.413Z,70.60
2018-09-09T11:52:46.996Z,70.70
2018-09-09T11:55:15.728Z,70.70
2018-09-09T11:57:44.427Z,70.90
2018-09-09T12:00:12.151Z,71.30
2018-09-09T12:02:40.720Z,71.10
2018-09-09T12:05:09.388Z,71.30
2018-09-09T12:07:37.095Z,71.40
2018-09-09T12:10:05.675Z,71.30
2018-09-09T12:12:34.240Z,71.30
2018-09-09T12:15:02.939Z,71.10
2018-09-09T12:17:31.611Z,72.10
2018-09-09T12:20:00.216Z,71.40
2018-09-09T12:22:29.082Z,71.30
2018-09-09T12:24:57.800Z,71.30
2018-09-09T12:27:26.527Z,71.50
2018-09-09T12:29:54.349Z,71.40
2018-09-09T12:32:24.662Z,71.50
2018-09-09T12:34:53.229Z,71.60
2018-09-09T12:37:21.924Z,71.70
2018-09-09T12:39:52.416Z,71.50
2018-09-09T12:42:21.020Z,71.30
2018-09-09T12:44:56.535Z,71.30
2018-09-09T12:47:30.692Z,71.60
2018-09-09T12:49:59.292Z,71.80
2018-09-09T12:52:27.996Z,71.80
2018-09-09T12:54:56.610Z,71.80
2018-09-09T12:57:25.156Z,72.00
2018-09-09T12:59:53.620Z,71.90
2018-09-09T13:02:23.995Z,71.80
2018-09-09T13:04:53.735Z,71.90
2018-09-09T13:07:23.918Z,71.90
2018-09-09T13:09:53.855Z,72.00
2018-09-09T13:12:23.960Z,71.90
2018-09-09T13:14:53.729Z,72.20
2018-09-09T13:17:23.468Z,72.00
2018-09-09T13:19:53.321Z,72.10
2018-09-09T13:22:23.524Z,72.20
2018-09-09T13:24:52.193Z,72.10
2018-09-09T13:27:21.849Z,72.10
2018-09-09T13:29:50.533Z,72.10
2018-09-09T13:32:19.036Z,72.10
2018-09-09T13:34:46.709Z,72.10
2018-09-09T13:37:14.389Z,72.20
2018-09-09T13:39:42.320Z,72.10
2018-09-09T13:42:09.987Z,71.90
2018-09-09T13:44:38.688Z,72.00
2018-09-09T13:47:06.420Z,71.90
2018-09-09T13:49:34.084Z,72.10
2018-09-09T13:52:01.756Z,72.40
2018-09-09T13:54:29.500Z,72.70
2018-09-09T13:56:57.171Z,72.70
2018-09-09T13:59:24.845Z,72.60
2018-09-09T14:01:53.104Z,72.70
2018-09-09T14:04:22.441Z,72.40
2018-09-09T14:06:50.192Z,71.90
2018-09-09T14:09:19.037Z,71.50
2018-09-09T14:11:48.155Z,72.00
2018-09-09T14:14:15.824Z,72.30
2018-09-09T14:16:43.516Z,72.30
2018-09-09T14:19:11.228Z,72.70
2018-09-09T14:21:38.904Z,72.40
2018-09-09T14:24:06.573Z,72.70
2018-09-09T14:26:34.303Z,72.80
2018-09-09T14:29:02.130Z,72.70
2018-09-09T14:31:29.820Z,73.00
2018-09-09T14:33:57.492Z,72.60
2018-09-09T14:36:25.174Z,73.20
2018-09-09T14:38:53.526Z,71.70
2018-09-09T14:41:22.184Z,73.10
2018-09-09T14:43:51.684Z,72.70
2018-09-09T14:46:20.248Z,73.50
2018-09-09T14:48:49.129Z,73.40
2018-09-09T14:51:16.814Z,73.00
2018-09-09T14:53:45.397Z,73.50
2018-09-09T14:56:14.084Z,73.60
2018-09-09T14:58:41.776Z,73.80
2018-09-09T15:01:09.448Z,73.10
2018-09-09T15:03:37.126Z,73.60
2018-09-09T15:06:04.798Z,73.30
2018-09-09T15:08:32.481Z,73.60
2018-09-09T15:11:00.172Z,73.60
2018-09-09T15:13:27.852Z,73.90
2018-09-09T15:15:56.497Z,74.00
2018-09-09T15:18:24.200Z,74.20
2018-09-09T15:20:52.804Z,73.90
2018-09-09T15:23:20.476Z,73.90
2018-09-09T15:25:49.854Z,74.00
2018-09-09T15:28:17.516Z,74.00
2018-09-09T15:30:46.953Z,73.80
2018-09-09T15:33:15.524Z,73.80
2018-09-09T15:35:44.211Z,74.30
2018-09-09T15:38:12.794Z,74.10
2018-09-09T15:40:41.348Z,73.70
2018-09-09T15:43:09.092Z,74.30
2018-09-09T15:45:37.901Z,74.10
2018-09-09T15:48:06.541Z,74.10
2018-09-09T15:50:34.284Z,74.30
2018-09-09T15:53:03.040Z,74.30
2018-09-09T15:55:32.177Z,74.30
2018-09-09T15:58:00.787Z,74.20
2018-09-09T16:00:28.515Z,74.50
2018-09-09T16:02:56.192Z,74.40
2018-09-09T16:05:23.867Z,75.00
2018-09-09T16:07:53.600Z,74.50
2018-09-09T16:10:22.344Z,74.60
2018-09-09T16:12:51.137Z,74.60
2018-09-09T16:15:19.532Z,74.70
2018-09-09T16:17:47.225Z,74.70
2018-09-09T16:20:14.935Z,74.70
2018-09-09T16:22:43.505Z,74.30
2018-09-09T16:25:11.395Z,74.70
2018-09-09T16:27:39.988Z,74.70
2018-09-09T16:30:08.949Z,74.70
2018-09-09T16:32:36.665Z,74.70
2018-09-09T16:35:05.393Z,74.90
2018-09-09T16:37:34.016Z,74.60
2018-09-09T16:40:02.563Z,74.80
2018-09-09T16:42:31.422Z,74.80
2018-09-09T16:45:00.193Z,74.90
2018-09-09T16:47:28.324Z,74.60
2018-09-09T16:49:56.880Z,75.00
2018-09-09T16:52:24.553Z,75.00
2018-09-09T16:54:53.267Z,75.00
2018-09-09T16:57:23.420Z,75.00
2018-09-09T16:59:54.453Z,75.00
2018-09-09T17:02:23.144Z,75.00
2018-09-09T17:04:52.389Z,75.00
2018-09-09T17:07:20.061Z,75.00
2018-09-09T17:09:49.237Z,74.90
2018-09-09T17:12:16.921Z,75.00
2018-09-09T17:14:45.617Z,75.00
2018-09-09T17:17:13.292Z,75.10
2018-09-09T17:19:41.017Z,75.10
2018-09-09T17:22:09.684Z,75.10
2018-09-09T17:24:37.395Z,75.20
2018-09-09T17:27:06.140Z,75.30
2018-09-09T17:29:33.819Z,75.30
2018-09-09T17:32:01.612Z,75.20
2018-09-09T17:34:29.313Z,75.10
2018-09-09T17:36:59.147Z,75.00
2018-09-09T17:39:26.827Z,75.00
2018-09-09T17:41:55.639Z,75.10
2018-09-09T17:44:23.361Z,75.30
2018-09-09T17:46:51.143Z,75.30
2018-09-09T17:49:20.089Z,75.10
2018-09-09T17:51:48.368Z,75.20
2018-09-09T17:54:16.076Z,75.20
2018-09-09T17:56:44.654Z,75.20
2018-09-09T17:59:12.365Z,75.20
2018-09-09T18:01:40.040Z,74.90
2018-09-09T18:04:08.652Z,74.60
2018-09-09T18:06:37.390Z,75.00
2018-09-09T18:09:06.244Z,74.90
2018-09-09T18:11:34.863Z,75.00
2018-09-09T18:14:02.604Z,74.50
2018-09-09T18:16:31.216Z,74.80
2018-09-09T18:18:58.885Z,74.70
2018-09-09T18:21:26.555Z,74.30
2018-09-09T18:23:54.226Z,74.80
2018-09-09T18:26:22.339Z,74.80
2018-09-09T18:28:52.841Z,74.90
2018-09-09T18:31:20.540Z,74.70
2018-09-09T18:33:50.013Z,74.50
2018-09-09T18:36:18.438Z,74.40
2018-09-09T18:38:47.008Z,74.70
2018-09-09T18:41:14.738Z,74.70
2018-09-09T18:43:43.297Z,74.90
2018-09-09T18:46:11.003Z,74.90
2018-09-09T18:48:39.006Z,74.60
2018-09-09T18:51:06.689Z,74.80
2018-09-09T18:53:35.245Z,74.80
2018-09-09T18:56:02.964Z,75.00
2018-09-09T18:58:30.642Z,75.00
2018-09-09T19:00:58.358Z,75.10
2018-09-09T19:03:26.938Z,75.10
2018-09-09T19:05:56.329Z,74.90
2018-09-09T19:08:24.864Z,75.10
2018-09-09T19:10:53.478Z,75.20
2018-09-09T19:13:23.096Z,75.20
2018-09-09T19:15:52.944Z,75.00
2018-09-09T19:18:23.167Z,75.00
2018-09-09T19:20:52.612Z,75.20
2018-09-09T19:23:22.431Z,75.90
2018-09-09T19:25:52.297Z,75.10
2018-09-09T19:28:20.124Z,75.20
2018-09-09T19:30:48.450Z,75.00
2018-09-09T19:33:16.144Z,75.20
2018-09-09T19:35:43.848Z,75.20
2018-09-09T19:38:11.680Z,75.20
2018-09-09T19:40:39.367Z,75.20
2018-09-09T19:43:07.117Z,75.00
2018-09-09T19:45:34.789Z,75.00
2018-09-09T19:48:03.512Z,75.40
2018-09-09T19:50:31.171Z,76.00
2018-09-09T19:52:58.853Z,75.50
2018-09-09T19:55:27.334Z,75.50
2018-09-09T19:57:55.193Z,75.40
2018-09-09T20:00:24.328Z,76.10
2018-09-09T20:02:54.120Z,75.20
2018-09-09T20:05:22.369Z,75.10
2018-09-09T20:07:50.606Z,75.20
2018-09-09T20:10:19.321Z,75.20
2018-09-09T20:12:47.133Z,75.00
2018-09-09T20:15:14.845Z,74.80
2018-09-09T20:17:42.519Z,74.50
2018-09-09T20:20:11.318Z,74.60
2018-09-09T20:22:39.014Z,74.40
2018-09-09T20:25:06.697Z,74.30
2018-09-09T20:27:35.291Z,73.90
2018-09-09T20:30:02.976Z,74.20
2018-09-09T20:32:32.064Z,74.40
2018-09-09T20:34:59.932Z,74.00
2018-09-09T20:37:27.624Z,73.90
2018-09-09T20:39:55.304Z,74.00
2018-09-09T20:42:24.308Z,73.80
2018-09-09T20:44:53.059Z,74.00
2018-09-09T20:47:21.993Z,74.00
2018-09-09T20:49:50.677Z,74.10
2018-09-09T20:52:18.908Z,74.00
2018-09-09T20:54:46.593Z,73.70
2018-09-09T20:57:14.436Z,74.10
2018-09-09T20:59:42.121Z,74.30
2018-09-09T21:02:09.849Z,74.00
2018-09-09T21:04:38.272Z,74.60
2018-09-09T21:07:06.388Z,74.20
2018-09-09T21:09:34.242Z,74.30
2018-09-09T21:12:01.959Z,74.30
2018-09-09T21:14:29.652Z,74.50
2018-09-09T21:16:57.351Z,74.40
2018-09-09T21:19:25.250Z,74.50
2018-09-09T21:21:54.092Z,75.10
2018-09-09T21:24:22.779Z,74.50
2018-09-09T21:26:50.473Z,74.60
2018-09-09T21:29:18.748Z,74.70
2018-09-09T21:31:46.419Z,74.60
2018-09-09T21:34:14.103Z,74.70
2018-09-09T21:36:41.784Z,74.60
2018-09-09T21:39:10.552Z,74.50
2018-09-09T21:41:39.668Z,74.30
2018-09-09T21:44:07.472Z,74.40
2018-09-09T21:46:35.264Z,74.30
2018-09-09T21:49:03.809Z,74.50
2018-09-09T21:51:32.494Z,74.60
2018-09-09T21:54:00.169Z,74.40
2018-09-09T21:56:27.928Z,74.20
2018-09-09T21:58:55.592Z,74.30
2018-09-09T22:01:28.846Z,74.30
2018-09-09T22:03:57.981Z,74.30
2018-09-09T22:06:26.155Z,74.50
2018-09-09T22:08:55.364Z,74.30
2018-09-09T22:11:23.360Z,74.30
2018-09-09T22:13:51.072Z,74.20
2018-09-09T22:16:21.417Z,74.20
2018-09-09T22:18:50.716Z,74.00
2018-09-09T22:21:20.571Z,74.00
2018-09-09T22:23:49.874Z,73.90
2018-09-09T22:26:19.872Z,74.00
2018-09-09T22:28:48.635Z,74.00
2018-09-09T22:31:16.411Z,73.90
2018-09-09T22:33:45.074Z,74.00
2018-09-09T22:36:13.757Z,73.90
2018-09-09T22:38:41.423Z,73.90
2018-09-09T22:41:10.132Z,74.00
2018-09-09T22:43:38.853Z,74.00
2018-09-09T22:46:06.524Z,74.20
2018-09-09T22:48:34.399Z,74.00
2018-09-09T22:51:02.078Z,73.90
2018-09-09T22:53:29.754Z,73.80
2018-09-09T22:55:57.736Z,73.90
2018-09-09T22:58:25.484Z,73.90
2018-09-09T23:00:54.040Z,73.90
2018-09-09T23:03:23.732Z,73.90
2018-09-09T23:05:53.600Z,73.90
2018-09-09T23:08:22.376Z,73.80
2018-09-09T23:10:53.576Z,74.00
2018-09-09T23:13:22.835Z,74.00
2018-09-09T23:15:53.348Z,74.00
2018-09-09T23:18:22.012Z,74.00
2018-09-09T23:20:50.724Z,73.80
2018-09-09T23:23:20.627Z,73.90
2018-09-09T23:25:49.456Z,73.80
2018-09-09T23:28:17.135Z,73.80
2018-09-09T23:30:45.893Z,73.70
2018-09-09T23:33:14.484Z,73.80
2018-09-09T23:35:43.223Z,73.40
2018-09-09T23:38:12.011Z,73.50
2018-09-09T23:40:40.580Z,73.10
2018-09-09T23:43:08.276Z,73.30
2018-09-09T23:45:35.944Z,73.20
2018-09-09T23:48:03.634Z,73.10
2018-09-09T23:50:31.312Z,73.10
2018-09-09T23:52:59.855Z,73.20
2018-09-09T23:55:27.520Z,73.10
2018-09-09T23:57:55.244Z,73.30
